createdAt,value
2023-03-22T00:02:30.388Z,11.63
2023-03-22T00:03:40.929Z,11.51
2023-03-22T00:06:07.512Z,11.65
2023-03-22T00:08:32.346Z,11.72
2023-03-22T00:10:57.718Z,11.75
2023-03-22T00:12:09.077Z,11.67
2023-03-22T00:14:33.887Z,11.79
2023-03-22T00:15:45.918Z,11.69
2023-03-22T00:18:13.462Z,11.80
2023-03-22T00:20:40.325Z,11.76
2023-03-22T00:21:52.056Z,11.67
2023-03-22T00:24:18.464Z,11.72
2023-03-22T00:26:44.406Z,11.72
2023-03-22T00:30:17.830Z,11.68
2023-03-22T00:31:27.126Z,11.55
2023-03-22T00:32:38.044Z,11.53
2023-03-22T00:35:02.484Z,11.67
2023-03-22T00:37:30.136Z,11.67
2023-03-22T00:38:44.123Z,11.58
2023-03-22T00:41:18.198Z,11.69
2023-03-22T00:43:43.078Z,11.72
2023-03-22T00:44:52.173Z,11.60
2023-03-22T00:47:16.691Z,11.71
2023-03-22T00:48:25.926Z,11.60
2023-03-22T00:49:38.835Z,11.59
2023-03-22T00:52:05.113Z,11.69
2023-03-22T00:54:30.763Z,11.65
2023-03-22T00:56:56.308Z,11.58
2023-03-22T00:58:05.565Z,11.47
2023-03-22T00:59:15.856Z,11.46
2023-03-22T01:01:40.827Z,11.54
2023-03-22T01:04:07.799Z,11.48
2023-03-22T01:05:18.436Z,11.37
2023-03-22T01:06:27.427Z,11.37
2023-03-22T01:07:38.911Z,11.36
2023-03-22T01:10:08.501Z,11.48
2023-03-22T01:11:19.291Z,11.38
2023-03-22T01:13:45.418Z,11.46
2023-03-22T01:14:56.246Z,11.36
2023-03-22T01:16:05.913Z,11.35
2023-03-22T01:17:16.966Z,11.36
2023-03-22T01:19:43.512Z,11.46
2023-03-22T01:20:53.448Z,11.35
2023-03-22T01:22:05.043Z,11.34
2023-03-22T01:24:30.893Z,11.39
2023-03-22T01:26:56.360Z,11.36
2023-03-22T01:28:06.674Z,11.26
2023-03-22T01:29:16.438Z,11.23
2023-03-22T01:30:26.715Z,11.21
2023-03-22T01:31:39.661Z,11.22
2023-03-22T01:34:05.626Z,11.29
2023-03-22T01:35:15.446Z,11.20
2023-03-22T01:36:25.706Z,11.21
2023-03-22T01:38:49.488Z,11.37
2023-03-22T01:41:16.981Z,11.35
2023-03-22T01:43:43.117Z,11.33
2023-03-22T01:45:20.495Z,11.23
2023-03-22T01:46:32.583Z,11.23
2023-03-22T01:49:11.530Z,11.24
2023-03-22T01:50:26.280Z,11.12
2023-03-22T01:51:36.492Z,11.10
2023-03-22T01:52:54.749Z,11.05
2023-03-22T01:54:10.960Z,11.03
2023-03-22T01:56:40.770Z,11.11
2023-03-22T01:59:13.564Z,11.07
2023-03-22T02:00:24.823Z,10.93
2023-03-22T02:03:37.610Z,11.01
2023-03-22T02:06:10.392Z,10.94
2023-03-22T02:08:37.897Z,10.89
2023-03-22T02:09:48.372Z,10.76
2023-03-22T02:11:02.368Z,10.75
2023-03-22T02:13:55.607Z,10.80
2023-03-22T02:16:22.433Z,10.68
2023-03-22T02:19:28.907Z,10.73
2023-03-22T02:21:02.552Z,10.56
2023-03-22T02:24:11.849Z,10.64
2023-03-22T02:25:34.093Z,10.53
2023-03-22T02:28:35.628Z,10.55
2023-03-22T02:31:34.403Z,10.49
2023-03-22T02:34:31.934Z,10.48
2023-03-22T02:37:38.985Z,10.44
2023-03-22T02:40:49.285Z,10.38
2023-03-22T02:43:46.185Z,10.33
2023-03-22T02:46:26.974Z,10.28
2023-03-22T02:49:16.937Z,10.25
2023-03-22T02:51:54.409Z,10.28
2023-03-22T02:53:21.165Z,10.12
2023-03-22T02:56:17.733Z,10.22
2023-03-22T02:58:51.719Z,10.17
2023-03-22T03:01:48.885Z,10.12
2023-03-22T03:04:21.748Z,10.09
2023-03-22T03:06:53.364Z,10.06
2023-03-22T03:08:04.441Z,9.96
2023-03-22T03:10:35.511Z,10.06
2023-03-22T03:13:16.276Z,10.07
2023-03-22T03:15:49.973Z,10.07
2023-03-22T03:18:45.866Z,10.05
2023-03-22T03:21:57.994Z,10.07
2023-03-22T03:24:47.844Z,10.11
2023-03-22T03:29:09.769Z,10.12
2023-03-22T03:30:28.532Z,10.00
2023-03-22T03:33:32.102Z,10.07
2023-03-22T03:34:51.291Z,9.97
2023-03-22T03:36:04.310Z,9.97
2023-03-22T03:38:38.544Z,10.07
2023-03-22T03:41:16.158Z,10.06
2023-03-22T03:43:46.494Z,10.08
2023-03-22T03:44:57.264Z,10.00
2023-03-22T03:46:08.682Z,9.98
2023-03-22T03:47:20.002Z,10.00
2023-03-22T03:49:48.689Z,10.11
2023-03-22T03:51:02.163Z,10.01
2023-03-22T03:52:12.922Z,10.01
2023-03-22T03:54:38.647Z,10.13
2023-03-22T03:57:05.670Z,10.13
2023-03-22T03:59:34.799Z,10.12
2023-03-22T04:02:02.199Z,10.21
2023-03-22T04:04:28.800Z,10.34
2023-03-22T04:07:03.587Z,10.35
2023-03-22T04:09:32.721Z,10.35
2023-03-22T04:10:49.792Z,10.24
2023-03-22T04:13:13.965Z,10.35
2023-03-22T04:14:25.291Z,10.24
2023-03-22T04:16:51.559Z,10.38
2023-03-22T04:18:02.011Z,10.26
2023-03-22T04:19:11.687Z,10.22
2023-03-22T04:21:38.411Z,10.29
2023-03-22T04:22:51.184Z,10.17
2023-03-22T04:24:02.023Z,10.15
2023-03-22T04:26:32.480Z,10.20
2023-03-22T04:28:19.171Z,10.09
2023-03-22T04:29:32.597Z,10.09
2023-03-22T04:31:26.077Z,10.07
2023-03-22T04:33:55.686Z,10.15
2023-03-22T04:36:26.026Z,10.18
2023-03-22T04:38:55.086Z,10.18
2023-03-22T04:41:25.033Z,10.20
2023-03-22T04:43:51.741Z,10.23
2023-03-22T04:46:21.688Z,10.27
2023-03-22T04:48:51.012Z,10.29
2023-03-22T04:50:00.785Z,10.20
2023-03-22T04:52:26.654Z,10.36
2023-03-22T04:53:38.821Z,10.22
2023-03-22T04:54:48.871Z,10.25
2023-03-22T04:55:58.480Z,10.33
2023-03-22T04:58:24.392Z,10.45
2023-03-22T04:59:33.230Z,10.31
2023-03-22T05:00:42.675Z,10.32
2023-03-22T05:01:52.474Z,10.33
2023-03-22T05:04:19.294Z,10.35
2023-03-22T05:05:29.842Z,10.26
2023-03-22T05:06:40.992Z,10.26
2023-03-22T05:09:08.058Z,10.37
2023-03-22T05:11:34.030Z,10.40
2023-03-22T05:14:14.314Z,10.45
2023-03-22T05:16:42.716Z,10.45
2023-03-22T05:19:14.419Z,10.49
2023-03-22T05:21:43.729Z,10.53
2023-03-22T05:24:10.749Z,10.58
2023-03-22T05:26:41.409Z,10.52
2023-03-22T05:29:10.563Z,10.51
2023-03-22T05:31:52.997Z,10.57
2023-03-22T05:34:21.801Z,10.53
2023-03-22T05:36:50.768Z,10.58
2023-03-22T05:39:22.444Z,10.61
2023-03-22T05:41:48.173Z,10.75
2023-03-22T05:42:58.605Z,10.68
2023-03-22T05:45:25.623Z,10.92
2023-03-22T05:48:36.703Z,11.05
2023-03-22T05:51:05.706Z,11.06
2023-03-22T05:53:32.539Z,11.14
2023-03-22T05:56:23.686Z,11.23
2023-03-22T05:57:34.455Z,11.19
2023-03-22T06:00:01.600Z,11.37
2023-03-22T06:01:16.094Z,11.31
2023-03-22T06:03:42.664Z,11.58
2023-03-22T06:06:58.000Z,11.73
2023-03-22T06:08:11.180Z,11.67
2023-03-22T06:09:21.045Z,11.72
2023-03-22T06:10:32.329Z,11.76
2023-03-22T06:12:58.954Z,12.02
2023-03-22T06:14:10.676Z,11.92
2023-03-22T06:16:07.531Z,12.01
2023-03-22T06:18:33.354Z,12.36
2023-03-22T06:21:03.469Z,12.59
2023-03-22T06:22:12.419Z,12.60
2023-03-22T06:23:21.890Z,12.69
2023-03-22T06:25:48.080Z,13.10
2023-03-22T06:26:59.441Z,13.08
2023-03-22T06:28:08.851Z,13.14
2023-03-22T06:29:18.425Z,13.21
2023-03-22T06:31:43.142Z,13.42
2023-03-22T06:34:11.398Z,13.48
2023-03-22T06:36:38.510Z,13.63
2023-03-22T06:39:46.241Z,13.92
2023-03-22T06:42:11.467Z,14.14
2023-03-22T06:44:37.225Z,14.37
2023-03-22T06:45:57.179Z,14.29
2023-03-22T06:48:24.082Z,14.57
2023-03-22T06:50:55.659Z,14.42
2023-03-22T06:53:39.335Z,14.42
2023-03-22T06:54:49.608Z,14.23
2023-03-22T06:57:14.116Z,14.41
2023-03-22T06:59:39.399Z,14.51
2023-03-22T07:02:05.262Z,14.59
2023-03-22T07:03:15.768Z,14.52
2023-03-22T07:04:29.106Z,14.11
2023-03-22T07:06:55.695Z,14.20
2023-03-22T07:09:24.514Z,13.97
2023-03-22T07:11:49.900Z,14.10
2023-03-22T07:14:14.449Z,14.20
2023-03-22T07:16:39.875Z,14.25
2023-03-22T07:19:11.633Z,14.33
2023-03-22T07:21:36.437Z,14.41
2023-03-22T07:22:47.816Z,14.38
2023-03-22T07:25:11.387Z,14.48
2023-03-22T07:27:35.981Z,14.53
2023-03-22T07:28:45.956Z,14.44
2023-03-22T07:31:12.900Z,14.59
2023-03-22T07:34:12.924Z,14.68
2023-03-22T07:36:42.773Z,14.79
2023-03-22T07:39:09.826Z,14.82
2023-03-22T07:41:37.180Z,14.83
2023-03-22T07:44:51.295Z,14.82
2023-03-22T07:47:20.288Z,14.75
2023-03-22T07:50:24.869Z,14.59
2023-03-22T07:52:50.740Z,14.52
2023-03-22T07:55:17.297Z,14.63
2023-03-22T07:57:41.922Z,14.61
2023-03-22T08:00:12.581Z,14.48
2023-03-22T08:02:40.248Z,14.57
2023-03-22T08:03:50.663Z,14.51
2023-03-22T08:06:59.468Z,14.30
2023-03-22T08:09:28.550Z,14.38
2023-03-22T08:11:53.808Z,14.44
2023-03-22T08:14:30.608Z,14.62
2023-03-22T08:16:46.271Z,14.70
2023-03-22T08:19:13.412Z,14.72
2023-03-22T08:21:42.175Z,14.63
2023-03-22T08:24:12.544Z,14.66
2023-03-22T08:26:39.542Z,14.66
2023-03-22T08:29:07.479Z,14.66
2023-03-22T08:31:33.576Z,14.68
2023-03-22T08:33:59.452Z,14.71
2023-03-22T08:36:25.651Z,14.85
2023-03-22T08:38:53.132Z,14.93
2023-03-22T08:41:23.077Z,14.86
2023-03-22T08:43:49.040Z,14.87
2023-03-22T08:44:59.310Z,14.76
2023-03-22T08:47:25.370Z,14.86
2023-03-22T08:49:53.274Z,14.84
2023-03-22T08:52:22.258Z,14.83
2023-03-22T08:55:37.436Z,14.83
2023-03-22T08:58:15.949Z,14.76
2023-03-22T09:00:55.308Z,14.79
2023-03-22T09:03:36.929Z,14.78
2023-03-22T09:06:02.671Z,14.85
2023-03-22T09:08:29.078Z,14.81
2023-03-22T09:10:55.680Z,14.84
2023-03-22T09:13:21.888Z,14.86
2023-03-22T09:14:32.816Z,14.75
2023-03-22T09:15:44.773Z,14.75
2023-03-22T09:18:15.843Z,14.93
2023-03-22T09:19:27.070Z,14.85
2023-03-22T09:20:38.203Z,14.89
2023-03-22T09:21:48.155Z,14.95
2023-03-22T09:24:14.919Z,15.09
2023-03-22T09:26:43.916Z,15.15
2023-03-22T09:27:53.569Z,15.06
2023-03-22T09:30:19.461Z,15.16
2023-03-22T09:31:29.787Z,15.09
2023-03-22T09:34:29.547Z,15.10
2023-03-22T09:37:01.070Z,15.04
2023-03-22T09:39:29.443Z,15.05
2023-03-22T09:42:21.249Z,15.07
2023-03-22T09:43:41.105Z,14.99
2023-03-22T09:44:52.087Z,15.04
2023-03-22T09:47:43.865Z,15.19
2023-03-22T09:48:48.319Z,15.11
2023-03-22T09:51:20.970Z,15.23
2023-03-22T09:53:49.196Z,15.25
2023-03-22T09:54:59.691Z,15.14
2023-03-22T09:56:13.284Z,15.15
2023-03-22T09:57:34.812Z,15.19
2023-03-22T09:58:56.298Z,15.24
2023-03-22T10:02:01.494Z,15.41
2023-03-22T10:03:42.157Z,15.33
2023-03-22T10:06:20.220Z,15.46
2023-03-22T10:07:47.957Z,15.38
2023-03-22T10:10:20.238Z,15.43
2023-03-22T10:14:51.651Z,15.40
2023-03-22T10:17:25.847Z,15.43
2023-03-22T10:20:01.483Z,15.51
2023-03-22T10:21:13.256Z,15.47
2023-03-22T10:23:48.390Z,15.71
2023-03-22T10:26:22.787Z,15.76
2023-03-22T10:27:34.642Z,15.64
2023-03-22T10:28:47.010Z,15.66
2023-03-22T10:31:22.578Z,15.73
2023-03-22T10:32:56.706Z,15.62
2023-03-22T10:35:24.756Z,15.65
2023-03-22T10:37:54.621Z,15.66
2023-03-22T10:40:35.999Z,15.61
2023-03-22T10:41:47.181Z,15.48
2023-03-22T10:44:35.896Z,15.59
2023-03-22T10:47:06.140Z,15.62
2023-03-22T10:49:53.081Z,15.67
2023-03-22T10:52:40.160Z,15.70
2023-03-22T10:55:13.852Z,15.70
2023-03-22T10:57:39.794Z,15.65
2023-03-22T10:58:50.146Z,15.54
2023-03-22T11:00:00.172Z,15.52
2023-03-22T11:03:40.256Z,15.59
2023-03-22T11:06:20.320Z,15.52
2023-03-22T11:07:33.688Z,15.38
2023-03-22T11:08:51.738Z,15.36
2023-03-22T11:10:10.385Z,15.34
2023-03-22T11:11:30.033Z,15.35
2023-03-22T11:14:16.265Z,15.51
2023-03-22T11:15:31.796Z,15.37
2023-03-22T11:18:17.759Z,15.45
2023-03-22T11:21:02.238Z,15.48
2023-03-22T11:23:43.786Z,15.47
2023-03-22T11:24:56.940Z,15.37
2023-03-22T11:27:32.649Z,15.47
2023-03-22T11:30:29.325Z,15.47
2023-03-22T11:31:56.067Z,15.37
2023-03-22T11:33:21.576Z,15.40
2023-03-22T11:34:31.173Z,15.37
2023-03-22T11:37:04.789Z,15.45
2023-03-22T11:39:49.176Z,15.45
2023-03-22T11:42:26.212Z,15.49
2023-03-22T11:44:59.176Z,15.53
2023-03-22T11:47:30.369Z,15.59
2023-03-22T11:48:42.854Z,15.53
2023-03-22T11:51:14.884Z,15.67
2023-03-22T11:52:27.085Z,15.60
2023-03-22T11:54:56.745Z,15.77
2023-03-22T11:56:09.291Z,15.70
2023-03-22T11:57:25.486Z,15.74
2023-03-22T11:58:41.660Z,15.72
2023-03-22T12:02:53.630Z,15.80
2023-03-22T12:04:05.601Z,15.69
2023-03-22T12:06:43.660Z,15.78
2023-03-22T12:09:28.351Z,15.72
2023-03-22T12:10:43.609Z,15.60
2023-03-22T12:11:57.051Z,15.57
2023-03-22T12:14:47.388Z,15.69
2023-03-22T12:17:20.725Z,15.76
2023-03-22T12:19:55.146Z,15.77
2023-03-22T12:21:04.960Z,15.71
2023-03-22T12:22:17.380Z,15.73
2023-03-22T12:24:46.510Z,15.89
2023-03-22T12:26:11.320Z,15.82
2023-03-22T12:30:19.542Z,16.01
2023-03-22T12:33:14.865Z,16.04
2023-03-22T12:34:27.919Z,15.93
2023-03-22T12:37:01.590Z,15.92
2023-03-22T12:38:27.560Z,15.81
2023-03-22T12:41:07.916Z,15.87
2023-03-22T12:42:27.406Z,15.75
2023-03-22T12:45:17.371Z,15.84
2023-03-22T12:46:30.442Z,15.74
2023-03-22T12:49:14.939Z,15.86
2023-03-22T12:52:00.982Z,15.85
2023-03-22T12:53:16.140Z,15.74
2023-03-22T12:54:29.496Z,15.73
2023-03-22T12:56:58.633Z,15.82
2023-03-22T12:58:10.043Z,15.73
2023-03-22T12:59:22.900Z,15.74
2023-03-22T13:00:59.868Z,15.75
2023-03-22T13:03:42.566Z,15.80
2023-03-22T13:04:56.269Z,15.71
2023-03-22T13:07:51.562Z,15.79
2023-03-22T13:10:34.568Z,15.77
2023-03-22T13:13:17.284Z,15.78
2023-03-22T13:16:12.565Z,15.86
2023-03-22T13:17:28.430Z,15.76
2023-03-22T13:20:12.569Z,15.82
2023-03-22T13:21:26.551Z,15.74
2023-03-22T13:24:16.343Z,15.89
2023-03-22T13:25:29.736Z,15.78
2023-03-22T13:26:49.889Z,15.75
2023-03-22T13:28:04.559Z,15.75
2023-03-22T13:30:57.874Z,15.81
2023-03-22T13:33:45.268Z,15.81
2023-03-22T13:36:25.587Z,15.77
2023-03-22T13:39:05.259Z,15.82
2023-03-22T13:41:53.843Z,15.76
2023-03-22T13:44:31.326Z,15.69
2023-03-22T13:47:01.109Z,15.71
2023-03-22T13:49:45.945Z,15.69
2023-03-22T13:52:22.008Z,15.72
2023-03-22T13:53:37.282Z,15.60
2023-03-22T13:56:06.879Z,15.73
2023-03-22T14:00:11.156Z,15.70
2023-03-22T14:02:56.658Z,15.74
2023-03-22T14:04:09.946Z,15.65
2023-03-22T14:06:45.979Z,15.77
2023-03-22T14:10:45.969Z,15.70
2023-03-22T14:13:38.845Z,15.65
2023-03-22T14:16:19.960Z,15.67
2023-03-22T14:19:07.720Z,15.71
2023-03-22T14:20:22.762Z,15.57
